Time;durP1;ratioP1;P1;durP2;ratioP2;P2;SDS_P1;SDS_P2;PMS_P1;PMS_P2;Temp;Humidity;BMP_temperature;BMP_pressure;BME280_temperature;BME280_humidity;BME280_pressure;Samples;Min_cycle;Max_cycle;Signal;HPM_P1;HPM_P2
2022/01/18 00:01:14;;;;;;;0.10;0.10;;;6.20;99.90;;;;;;5167457;27;20110;-86
2022/01/18 00:03:41;;;;;;;0.10;0.10;;;6.20;99.90;;;;;;5117123;28;20040;-82
2022/01/18 00:06:08;;;;;;;0.10;0.10;;;6.60;99.90;;;;;;5116510;28;20032;-84
2022/01/18 00:08:37;;;;;;;0.00;0.00;;;6.20;99.90;;;;;;5116789;28;20047;-82
2022/01/18 00:11:03;;;;;;;0.00;0.00;;;7.00;99.90;;;;;;5167497;27;20036;-85
2022/01/18 00:13:40;;;;;;;0.00;0.00;;;6.30;99.90;;;;;;5167263;27;20032;-85
2022/01/18 00:19:06;;;;;;;0.10;0.10;;;6.30;99.90;;;;;;5129438;28;20054;-85
2022/01/18 00:22:33;;;;;;;0.10;0.10;;;6.30;99.90;;;;;;5150968;27;20118;-85
2022/01/18 00:24:29;;;;;;;0.10;0.10;;;6.20;99.90;;;;;;5140444;28;20089;-82
2022/01/18 00:26:56;;;;;;;0.10;0.10;;;6.20;99.90;;;;;;5116730;28;20684;-85
2022/01/18 00:29:25;;;;;;;0.10;0.10;;;6.20;99.90;;;;;;5116031;28;20134;-82
2022/01/18 00:34:39;;;;;;;0.10;0.10;;;6.20;99.90;;;;;;5135777;28;20062;-82
2022/01/18 00:39:34;;;;;;;0.15;0.15;;;6.40;99.90;;;;;;5132368;28;20044;-81
2022/01/18 00:42:01;;;;;;;0.10;0.10;;;6.10;99.90;;;;;;5149333;28;20048;-81
2022/01/18 00:44:27;;;;;;;0.10;0.10;;;6.00;99.90;;;;;;5114386;28;20055;-82
2022/01/18 00:46:54;;;;;;;0.00;0.00;;;6.10;99.90;;;;;;5115994;28;20035;-85
2022/01/18 00:49:21;;;;;;;0.10;0.10;;;6.00;99.90;;;;;;5132840;28;20044;-85
2022/01/18 00:51:54;;;;;;;0.10;0.10;;;5.90;99.90;;;;;;5098036;28;20040;-85
2022/01/18 00:54:25;;;;;;;0.00;0.00;;;5.90;99.90;;;;;;5100622;28;20036;-82
2022/01/18 00:56:54;;;;;;;0.10;0.10;;;5.90;99.90;;;;;;5100293;28;20180;-86
2022/01/18 00:59:21;;;;;;;0.00;0.00;;;5.80;99.90;;;;;;5132313;28;20071;-84
2022/01/18 01:01:48;;;;;;;0.10;0.10;;;5.80;99.90;;;;;;5149729;28;20122;-85
2022/01/18 01:04:16;;;;;;;0.00;0.00;;;5.70;99.90;;;;;;5151621;27;20170;-81
2022/01/18 01:06:42;;;;;;;0.10;0.10;;;5.70;99.90;;;;;;5095662;28;20052;-82
2022/01/18 01:09:09;;;;;;;0.10;0.10;;;5.70;99.90;;;;;;5128653;28;20044;-85
2022/01/18 01:11:39;;;;;;;0.10;0.10;;;6.20;99.90;;;;;;5128486;28;20157;-81
2022/01/18 01:14:09;;;;;;;0.10;0.10;;;5.60;99.90;;;;;;5128830;28;20044;-85
2022/01/18 01:16:55;;;;;;;0.10;0.10;;;5.50;99.90;;;;;;5111506;28;20051;-82
2022/01/18 01:46:54;;;;;;;0.08;0.08;;;5.10;99.90;;;;;;5104108;28;20047;-85
2022/01/18 01:49:23;;;;;;;0.10;0.10;;;5.10;99.90;;;;;;5128252;28;20032;-82
2022/01/18 01:51:50;;;;;;;0.00;0.00;;;5.10;99.90;;;;;;5128430;28;20081;-85
2022/01/18 01:54:17;;;;;;;0.10;0.10;;;5.10;99.90;;;;;;5127824;28;20400;-82
2022/01/18 01:56:45;;;;;;;0.10;0.10;;;5.10;99.90;;;;;;5128034;28;20130;-82
2022/01/18 01:59:12;;;;;;;0.10;0.10;;;5.00;99.90;;;;;;5144888;28;20028;-85
2022/01/18 02:01:41;;;;;;;0.00;0.00;;;5.60;99.90;;;;;;5144979;28;20127;-81
2022/01/18 02:04:09;;;;;;;0.10;0.10;;;5.10;99.90;;;;;;5111520;28;20040;-85
2022/01/18 02:06:35;;;;;;;0.10;0.10;;;5.10;99.90;;;;;;5144510;28;20405;-85
2022/01/18 02:09:03;;;;;;;0.10;0.10;;;5.20;99.90;;;;;;5111444;28;20046;-82
2022/01/18 02:11:30;;;;;;;0.00;0.00;;;5.20;99.90;;;;;;5127251;28;20047;-82
2022/01/18 02:13:57;;;;;;;0.10;0.10;;;5.30;99.90;;;;;;5127558;28;20035;-85
2022/01/18 02:21:54;;;;;;;0.10;0.10;;;5.30;99.90;;;;;;5127611;28;20040;-85
2022/01/18 02:24:23;;;;;;;0.10;0.10;;;5.30;99.90;;;;;;5111040;28;20181;-84
2022/01/18 02:26:49;;;;;;;0.10;0.10;;;5.80;99.90;;;;;;5127211;28;20047;-85
2022/01/18 02:29:17;;;;;;;0.10;0.10;;;5.40;99.90;;;;;;5127076;28;20127;-82
2022/01/18 02:31:44;;;;;;;0.10;0.10;;;5.40;99.90;;;;;;5126699;28;20047;-82
2022/01/18 02:34:16;;;;;;;0.10;0.10;;;5.40;99.90;;;;;;5127732;28;20105;-84
2022/01/18 02:36:43;;;;;;;0.00;0.00;;;5.40;99.90;;;;;;5144026;28;20040;-85
2022/01/18 02:39:11;;;;;;;0.00;0.00;;;5.40;99.90;;;;;;5127679;28;20425;-84
2022/01/18 02:41:39;;;;;;;0.10;0.10;;;5.50;99.90;;;;;;5144226;28;20036;-85
2022/01/18 02:44:13;;;;;;;0.10;0.10;;;5.50;99.90;;;;;;5144018;28;20781;-85
2022/01/18 02:46:42;;;;;;;0.10;0.10;;;5.50;99.90;;;;;;5109507;28;20417;-85
2022/01/18 02:49:10;;;;;;;0.10;0.10;;;5.50;99.90;;;;;;5144065;28;20459;-81
2022/01/18 02:51:37;;;;;;;0.10;0.10;;;5.80;99.90;;;;;;5127189;28;20035;-85
2022/01/18 02:54:06;;;;;;;0.10;0.10;;;5.60;99.90;;;;;;5144055;28;20554;-82
2022/01/18 02:56:44;;;;;;;0.10;0.10;;;5.60;99.90;;;;;;5143400;28;20040;-81
2022/01/18 03:04:48;;;;;;;0.10;0.10;;;6.10;99.90;;;;;;5112019;28;20100;-81
2022/01/18 03:07:15;;;;;;;0.10;0.10;;;5.70;99.90;;;;;;5126711;28;20040;-82
2022/01/18 03:09:42;;;;;;;0.03;0.03;;;5.70;99.90;;;;;;5109948;28;20153;-82
2022/01/18 03:12:10;;;;;;;0.00;0.00;;;5.70;99.90;;;;;;5093260;28;20540;-82
2022/01/18 03:14:38;;;;;;;0.10;0.10;;;5.70;99.90;;;;;;5143311;28;20036;-85
2022/01/18 03:17:05;;;;;;;0.10;0.10;;;5.70;99.90;;;;;;5143423;28;20036;-85
2022/01/18 03:19:32;;;;;;;0.05;0.05;;;5.80;99.90;;;;;;5109640;28;20093;-82
2022/01/18 03:21:59;;;;;;;0.10;0.10;;;5.80;99.90;;;;;;5126180;28;20578;-82
2022/01/18 03:29:38;;;;;;;0.10;0.10;;;5.80;99.90;;;;;;5111750;28;20556;-85
2022/01/18 03:32:06;;;;;;;0.00;0.00;;;5.80;99.90;;;;;;5126592;28;20131;-85
2022/01/18 03:34:33;;;;;;;0.10;0.10;;;5.80;99.90;;;;;;5142946;28;20044;-82
2022/01/18 03:37:00;;;;;;;0.00;0.00;;;5.80;99.90;;;;;;5126284;28;20090;-81
2022/01/18 03:39:26;;;;;;;0.10;0.10;;;5.80;99.90;;;;;;5110253;28;20477;-85
2022/01/18 03:41:55;;;;;;;0.08;0.08;;;5.90;99.90;;;;;;5126219;28;20050;-82
2022/01/18 03:44:26;;;;;;;0.00;0.00;;;6.00;99.90;;;;;;5126754;28;20036;-81
2022/01/18 03:46:53;;;;;;;0.10;0.10;;;5.80;99.90;;;;;;5126336;28;20036;-82
2022/01/18 03:49:23;;;;;;;0.10;0.10;;;5.90;99.90;;;;;;5143141;28;20404;-81
2022/01/18 03:51:50;;;;;;;0.05;0.05;;;5.90;99.90;;;;;;5126292;28;20594;-82
2022/01/18 03:54:22;;;;;;;0.10;0.10;;;6.00;99.90;;;;;;5126283;28;20123;-82
2022/01/18 03:56:49;;;;;;;0.10;0.10;;;6.50;99.90;;;;;;5109986;28;20040;-85
2022/01/18 03:59:16;;;;;;;0.10;0.10;;;5.90;99.90;;;;;;5129217;28;20819;-81
2022/01/18 04:01:42;;;;;;;0.08;0.08;;;5.90;99.90;;;;;;5129920;28;20127;-84
2022/01/18 04:04:09;;;;;;;0.10;0.10;;;5.90;99.90;;;;;;5113355;28;20138;-85
2022/01/18 04:06:36;;;;;;;0.10;0.10;;;6.00;99.90;;;;;;5130346;28;20050;-85
2022/01/18 04:09:03;;;;;;;0.10;0.10;;;5.90;99.90;;;;;;5129558;28;20046;-85
2022/01/18 04:11:31;;;;;;;0.10;0.10;;;5.90;99.90;;;;;;5146833;28;20398;-85
2022/01/18 04:13:57;;;;;;;0.10;0.10;;;6.00;99.90;;;;;;5112719;28;20044;-82
2022/01/18 04:16:24;;;;;;;0.10;0.10;;;5.90;99.90;;;;;;5129637;28;20070;-85
2022/01/18 04:19:09;;;;;;;0.10;0.10;;;5.90;99.90;;;;;;5112930;28;20036;-85
2022/01/18 04:27:06;;;;;;;0.00;0.00;;;6.10;99.90;;;;;;5115448;28;20489;-85
2022/01/18 04:29:33;;;;;;;0.08;0.08;;;6.00;99.90;;;;;;5129628;28;20113;-85
2022/01/18 04:32:00;;;;;;;0.00;0.00;;;6.00;99.90;;;;;;5129176;28;20048;-84
2022/01/18 04:34:27;;;;;;;0.10;0.10;;;6.00;99.90;;;;;;5112513;28;20042;-81
2022/01/18 04:36:53;;;;;;;0.03;0.03;;;6.10;99.90;;;;;;5130482;28;20044;-85
2022/01/18 04:39:20;;;;;;;0.00;0.00;;;6.00;99.90;;;;;;5129332;28;20031;-85
2022/01/18 04:41:47;;;;;;;0.00;0.00;;;6.00;99.90;;;;;;5138101;28;20097;-85
2022/01/18 04:48:25;;;;;;;0.00;0.00;;;5.90;99.90;;;;;;5112296;28;20074;-82
2022/01/18 04:49:48;;;;;;;0.10;0.10;;;5.90;99.90;;;;;;5128674;28;20050;-85
2022/01/18 04:52:15;;;;;;;0.03;0.03;;;5.90;99.90;;;;;;5129484;28;20044;-85
2022/01/18 04:54:44;;;;;;;0.10;0.10;;;5.90;99.90;;;;;;5128916;28;20039;-82
2022/01/18 04:59:38;;;;;;;0.10;0.10;;;6.00;99.90;;;;;;5128861;28;20047;-82
2022/01/18 05:02:05;;;;;;;0.00;0.00;;;6.00;99.90;;;;;;5112355;28;20032;-81
2022/01/18 05:04:32;;;;;;;0.10;0.10;;;6.00;99.90;;;;;;5111804;28;20040;-82
2022/01/18 05:07:01;;;;;;;0.10;0.10;;;6.10;99.90;;;;;;5128343;28;20039;-85
2022/01/18 05:09:28;;;;;;;0.10;0.10;;;6.00;99.90;;;;;;5145166;28;20036;-84
2022/01/18 05:12:05;;;;;;;0.00;0.00;;;5.90;99.90;;;;;;5111717;28;20043;-82
2022/01/18 05:14:34;;;;;;;0.10;0.10;;;6.10;99.90;;;;;;5128503;28;20120;-85
2022/01/18 05:17:21;;;;;;;0.00;0.00;;;5.90;99.90;;;;;;5128055;28;20510;-84
2022/01/18 05:20:13;;;;;;;0.10;0.10;;;6.00;99.90;;;;;;5142267;28;20040;-82
2022/01/18 05:25:20;;;;;;;0.08;0.08;;;6.00;99.90;;;;;;5142999;28;20465;-82
2022/01/18 05:27:46;;;;;;;0.00;0.00;;;6.00;99.90;;;;;;5111157;28;20122;-81
2022/01/18 05:30:13;;;;;;;0.00;0.00;;;6.00;99.90;;;;;;5127488;28;20052;-85
2022/01/18 05:32:40;;;;;;;0.10;0.10;;;6.00;99.90;;;;;;5128518;28;20055;-82
2022/01/18 05:35:07;;;;;;;0.10;0.10;;;6.00;99.90;;;;;;5144959;28;20408;-82
2022/01/18 05:37:34;;;;;;;0.00;0.00;;;5.90;99.90;;;;;;5127939;28;20040;-85
2022/01/18 05:40:01;;;;;;;0.10;0.10;;;6.00;99.90;;;;;;5110604;28;20040;-82
2022/01/18 05:42:28;;;;;;;0.10;0.10;;;6.00;99.90;;;;;;5127953;28;20032;-81
2022/01/18 05:44:54;;;;;;;0.03;0.03;;;6.00;99.90;;;;;;5127972;28;20050;-82
2022/01/18 05:47:21;;;;;;;0.10;0.10;;;6.00;99.90;;;;;;5110880;28;20047;-81
2022/01/18 05:49:48;;;;;;;0.10;0.10;;;6.20;99.90;;;;;;5128085;28;20135;-85
2022/01/18 05:52:14;;;;;;;0.10;0.10;;;6.10;99.90;;;;;;5111250;28;20493;-82
2022/01/18 05:54:41;;;;;;;0.10;0.10;;;6.30;99.90;;;;;;5144571;28;20512;-85
2022/01/18 05:57:08;;;;;;;0.00;0.00;;;6.00;99.90;;;;;;5128209;28;20123;-82
2022/01/18 05:59:38;;;;;;;0.10;0.10;;;6.00;99.90;;;;;;5110645;28;20075;-85
2022/01/18 06:07:56;;;;;;;0.10;0.10;;;5.90;99.90;;;;;;5088967;28;20040;-84
2022/01/18 06:10:23;;;;;;;0.10;0.10;;;6.00;99.90;;;;;;5102646;28;20052;-81
2022/01/18 06:12:50;;;;;;;0.10;0.10;;;6.60;99.90;;;;;;5144819;28;20117;-85
2022/01/18 06:15:18;;;;;;;0.00;0.00;;;5.90;99.90;;;;;;5144301;28;20508;-85
2022/01/18 06:17:45;;;;;;;0.00;0.00;;;5.90;99.90;;;;;;5127067;28;20507;-82
2022/01/18 06:20:13;;;;;;;0.10;0.10;;;5.90;99.90;;;;;;5126375;28;20040;-82
2022/01/18 06:22:39;;;;;;;0.00;0.00;;;5.90;99.90;;;;;;5127069;28;20044;-82
2022/01/18 06:25:07;;;;;;;0.10;0.10;;;5.90;99.90;;;;;;5127092;28;20044;-81
2022/01/18 06:27:34;;;;;;;0.00;0.00;;;5.90;99.90;;;;;;5126955;28;20044;-83
2022/01/18 06:30:01;;;;;;;0.10;0.10;;;5.90;99.90;;;;;;5109517;28;20434;-85
2022/01/18 06:32:27;;;;;;;0.15;0.15;;;5.90;99.90;;;;;;5144003;28;20047;-82
2022/01/18 06:34:54;;;;;;;0.03;0.03;;;6.20;99.90;;;;;;5110937;28;20106;-85
2022/01/18 06:37:21;;;;;;;0.10;0.10;;;5.90;99.90;;;;;;5130754;28;20180;-85
2022/01/18 06:39:48;;;;;;;0.05;0.05;;;5.90;99.90;;;;;;5130768;28;20617;-86
2022/01/18 06:42:15;;;;;;;0.10;0.10;;;5.90;99.90;;;;;;5096841;28;20028;-85
2022/01/18 06:44:41;;;;;;;0.00;0.00;;;5.80;99.90;;;;;;5113497;28;20184;-86
2022/01/18 06:47:11;;;;;;;0.03;0.03;;;6.10;99.90;;;;;;5133064;28;20039;-85
2022/01/18 06:49:38;;;;;;;0.10;0.10;;;5.80;99.90;;;;;;5093261;28;20043;-87
2022/01/18 06:52:05;;;;;;;0.30;0.20;;;5.90;99.90;;;;;;5110282;28;20492;-86
2022/01/18 06:54:32;;;;;;;0.10;0.10;;;5.80;99.90;;;;;;5110020;28;20040;-82
2022/01/18 06:56:58;;;;;;;0.10;0.10;;;5.90;99.90;;;;;;5109828;28;20044;-87
2022/01/18 06:59:25;;;;;;;0.10;0.10;;;6.30;99.90;;;;;;5109978;28;20131;-82
2022/01/18 07:01:52;;;;;;;0.10;0.10;;;5.80;99.90;;;;;;5126805;28;20079;-82
2022/01/18 07:04:19;;;;;;;0.00;0.00;;;5.80;99.90;;;;;;5109376;28;20036;-82
2022/01/18 07:06:45;;;;;;;0.00;0.00;;;6.40;99.90;;;;;;5112686;28;20151;-82
2022/01/18 07:09:15;;;;;;;0.00;0.00;;;5.80;99.90;;;;;;5113472;28;20065;-87
2022/01/18 07:11:42;;;;;;;0.10;0.10;;;5.80;99.90;;;;;;5130296;28;20105;-87
2022/01/18 07:14:09;;;;;;;0.00;0.00;;;6.30;99.90;;;;;;5093288;28;20043;-86
2022/01/18 07:16:36;;;;;;;0.00;0.00;;;5.80;99.90;;;;;;5110429;28;20044;-87
2022/01/18 07:19:02;;;;;;;0.10;0.10;;;5.80;99.90;;;;;;5114036;28;20035;-87
2022/01/18 07:21:29;;;;;;;0.10;0.10;;;5.80;99.90;;;;;;5130410;28;20050;-82
2022/01/18 07:24:04;;;;;;;0.10;0.10;;;5.80;99.90;;;;;;5110651;28;20064;-83
2022/01/18 07:26:32;;;;;;;0.00;0.00;;;5.80;99.90;;;;;;5098694;28;20484;-82
2022/01/18 07:28:59;;;;;;;0.10;0.10;;;5.80;99.90;;;;;;5129798;28;20122;-87
2022/01/18 07:31:26;;;;;;;0.10;0.10;;;5.80;99.90;;;;;;5112782;28;20048;-82
2022/01/18 07:33:53;;;;;;;0.10;0.10;;;6.10;99.90;;;;;;5133772;28;20039;-85
2022/01/18 07:36:19;;;;;;;0.10;0.10;;;5.80;99.90;;;;;;5099939;28;20050;-82
2022/01/18 07:38:46;;;;;;;0.10;0.10;;;5.80;99.90;;;;;;5133999;28;20400;-89
2022/01/18 07:41:13;;;;;;;0.15;0.15;;;5.80;99.90;;;;;;5100662;28;20126;-88
2022/01/18 07:43:41;;;;;;;0.00;0.00;;;5.80;99.90;;;;;;5133638;28;20118;-88
2022/01/18 07:46:08;;;;;;;0.00;0.00;;;5.80;99.90;;;;;;5133658;28;20120;-83
2022/01/18 07:48:35;;;;;;;0.00;0.00;;;5.80;99.90;;;;;;5161469;27;20039;-83
2022/01/18 07:51:02;;;;;;;0.10;0.10;;;5.80;99.90;;;;;;5134182;28;20180;-83
2022/01/18 07:53:28;;;;;;;0.00;0.00;;;5.80;99.90;;;;;;5117111;28;20131;-87
2022/01/18 07:55:55;;;;;;;0.10;0.10;;;5.70;99.90;;;;;;5116796;28;20040;-83
2022/01/18 07:58:22;;;;;;;0.00;0.00;;;5.80;99.90;;;;;;5133327;28;20085;-87
2022/01/18 08:00:49;;;;;;;0.10;0.10;;;5.80;99.90;;;;;;5151110;28;20042;-82
2022/01/18 08:03:15;;;;;;;0.10;0.10;;;5.80;99.90;;;;;;5150036;28;20377;-87
2022/01/18 08:05:42;;;;;;;0.10;0.10;;;6.40;99.90;;;;;;5133620;28;20137;-82
2022/01/18 08:08:09;;;;;;;0.00;0.00;;;5.80;99.90;;;;;;5150959;28;20043;-87
2022/01/18 08:10:36;;;;;;;0.10;0.10;;;5.80;99.90;;;;;;5117163;28;20407;-82
2022/01/18 08:13:04;;;;;;;0.10;0.10;;;5.80;99.90;;;;;;5167833;27;20043;-87
2022/01/18 08:15:38;;;;;;;0.00;0.00;;;5.90;99.90;;;;;;5116539;28;20043;-82
2022/01/18 08:18:11;;;;;;;0.03;0.03;;;5.80;99.90;;;;;;5166975;27;20071;-87
2022/01/18 08:20:38;;;;;;;0.10;0.10;;;5.90;99.90;;;;;;5156515;27;20028;-88
2022/01/18 08:23:05;;;;;;;0.00;0.00;;;5.80;99.90;;;;;;5115581;28;20071;-83
2022/01/18 08:25:34;;;;;;;0.10;0.10;;;5.90;99.90;;;;;;5158449;27;20070;-87
2022/01/18 08:28:02;;;;;;;0.00;0.00;;;5.90;99.90;;;;;;5116743;28;20500;-82
2022/01/18 08:30:30;;;;;;;0.00;0.00;;;6.30;99.90;;;;;;5099983;28;20059;-83
2022/01/18 08:32:57;;;;;;;0.10;0.10;;;5.90;99.90;;;;;;5133793;28;20047;-82
2022/01/18 08:35:24;;;;;;;0.10;0.10;;;6.40;99.90;;;;;;5095904;28;20443;-83
2022/01/18 08:37:51;;;;;;;0.10;0.10;;;6.00;99.90;;;;;;5109881;28;20044;-83
2022/01/18 08:40:18;;;;;;;0.08;0.08;;;6.70;99.90;;;;;;5130220;28;20043;-83
2022/01/18 08:42:45;;;;;;;0.10;0.10;;;6.00;99.90;;;;;;5132152;28;20032;-86
2022/01/18 08:45:12;;;;;;;0.10;0.10;;;6.00;99.90;;;;;;5111503;28;20042;-83
2022/01/18 08:47:39;;;;;;;0.10;0.10;;;6.00;99.90;;;;;;5130998;28;20119;-86
2022/01/18 08:50:07;;;;;;;0.00;0.00;;;6.00;99.90;;;;;;5098345;28;20134;-86
2022/01/18 08:52:34;;;;;;;0.00;0.00;;;6.10;99.90;;;;;;5149132;27;20043;-86
2022/01/18 08:55:01;;;;;;;0.10;0.10;;;6.10;99.90;;;;;;5131331;28;20132;-86
2022/01/18 08:57:28;;;;;;;0.10;0.10;;;6.10;99.90;;;;;;5115050;28;20122;-85
2022/01/18 08:59:54;;;;;;;0.08;0.08;;;6.10;99.90;;;;;;5115147;28;20050;-87
2022/01/18 09:02:21;;;;;;;0.10;0.10;;;6.10;99.90;;;;;;5131281;28;20050;-83
2022/01/18 09:04:48;;;;;;;0.10;0.10;;;6.10;99.90;;;;;;5115789;28;20127;-87
2022/01/18 09:07:17;;;;;;;0.10;0.10;;;6.20;99.90;;;;;;5148922;28;20412;-82
2022/01/18 09:09:46;;;;;;;0.03;0.03;;;6.10;99.90;;;;;;5132830;27;20051;-82
2022/01/18 09:12:15;;;;;;;0.10;0.10;;;6.20;99.90;;;;;;5115400;28;20531;-83
2022/01/18 09:14:41;;;;;;;0.10;0.10;;;6.30;99.90;;;;;;5131825;28;20053;-86
2022/01/18 09:17:08;;;;;;;0.10;0.10;;;6.30;99.90;;;;;;5115049;28;20050;-86
2022/01/18 09:19:35;;;;;;;0.00;0.00;;;6.30;99.90;;;;;;5148556;27;20043;-83
2022/01/18 09:22:03;;;;;;;0.10;0.10;;;6.30;99.90;;;;;;5160754;27;20036;-88
2022/01/18 09:24:30;;;;;;;0.10;0.10;;;6.30;99.90;;;;;;5103015;28;20044;-82
2022/01/18 09:26:57;;;;;;;0.10;0.10;;;6.30;99.90;;;;;;5112585;28;20113;-86
2022/01/18 09:29:24;;;;;;;0.08;0.08;;;6.40;99.90;;;;;;5131620;28;20031;-83
2022/01/18 09:31:51;;;;;;;0.10;0.10;;;6.60;99.90;;;;;;5131779;28;20078;-84
2022/01/18 09:34:18;;;;;;;0.00;0.00;;;6.40;99.90;;;;;;5114141;28;20048;-86
2022/01/18 09:36:44;;;;;;;0.00;0.00;;;6.40;99.90;;;;;;5098587;28;20507;-83
2022/01/18 09:39:11;;;;;;;0.10;0.10;;;6.40;99.90;;;;;;5097514;28;20032;-86
2022/01/18 09:41:40;;;;;;;0.10;0.10;;;6.50;99.90;;;;;;5148707;28;20043;-84
2022/01/18 09:44:08;;;;;;;0.10;0.10;;;6.60;99.90;;;;;;5130951;28;20063;-86
2022/01/18 09:46:35;;;;;;;0.00;0.00;;;6.50;99.90;;;;;;5148004;28;20051;-86
2022/01/18 09:49:04;;;;;;;0.00;0.00;;;6.60;99.90;;;;;;5131508;28;20039;-83
2022/01/18 09:51:31;;;;;;;0.10;0.10;;;6.60;99.90;;;;;;5114793;28;20046;-83
2022/01/18 09:53:58;;;;;;;0.00;0.00;;;6.60;99.90;;;;;;5114131;28;20044;-87
2022/01/18 09:56:25;;;;;;;0.10;0.10;;;6.60;99.90;;;;;;5112576;28;20086;-83
2022/01/18 09:58:52;;;;;;;0.00;0.00;;;6.60;99.90;;;;;;5147696;27;20040;-82
2022/01/18 10:01:19;;;;;;;0.00;0.00;;;6.70;99.90;;;;;;5114185;28;20043;-84
2022/01/18 10:03:46;;;;;;;0.10;0.10;;;6.70;99.90;;;;;;5113887;28;20036;-83
2022/01/18 10:06:17;;;;;;;0.10;0.10;;;6.70;99.90;;;;;;5147997;28;20403;-82
2022/01/18 10:08:48;;;;;;;0.10;0.10;;;6.70;99.90;;;;;;5131189;28;20039;-86
2022/01/18 10:11:18;;;;;;;0.10;0.10;;;6.80;99.90;;;;;;5130996;28;20031;-86
2022/01/18 10:13:48;;;;;;;0.10;0.10;;;6.80;99.90;;;;;;5113606;28;20063;-83
2022/01/18 10:16:20;;;;;;;0.10;0.10;;;7.30;99.90;;;;;;5130623;28;20040;-82
2022/01/18 10:19:00;;;;;;;0.10;0.10;;;6.80;99.90;;;;;;5130781;28;20044;-86
2022/01/18 10:21:29;;;;;;;0.00;0.00;;;6.80;99.90;;;;;;5114588;28;20036;-86
2022/01/18 10:24:21;;;;;;;0.00;0.00;;;7.20;99.90;;;;;;5147080;28;20043;-83
2022/01/18 10:26:50;;;;;;;0.00;0.00;;;6.80;99.90;;;;;;5130655;28;20604;-83
2022/01/18 10:29:22;;;;;;;0.10;0.10;;;6.80;99.90;;;;;;5130193;28;20039;-82
2022/01/18 10:37:03;;;;;;;0.10;0.10;;;6.90;99.90;;;;;;5147417;28;20052;-86
2022/01/18 10:39:39;;;;;;;0.10;0.10;;;7.00;99.90;;;;;;5163942;27;20512;-87
2022/01/18 10:42:36;;;;;;;0.00;0.00;;;7.00;99.90;;;;;;5165630;27;20038;-83
2022/01/18 10:45:21;;;;;;;0.20;0.20;;;7.10;99.90;;;;;;5165158;27;20043;-84
2022/01/18 10:48:11;;;;;;;0.10;0.10;;;7.10;99.90;;;;;;5131567;28;20035;-83
2022/01/18 10:50:40;;;;;;;0.00;0.00;;;7.10;99.90;;;;;;5100244;28;20059;-88
2022/01/18 10:53:27;;;;;;;0.10;0.10;;;7.10;99.90;;;;;;5143420;28;20047;-84
2022/01/18 10:56:14;;;;;;;0.00;0.00;;;7.10;99.90;;;;;;5094213;28;20405;-87
2022/01/18 10:58:52;;;;;;;0.10;0.10;;;7.10;99.90;;;;;;5095389;28;20508;-83
2022/01/18 11:01:20;;;;;;;0.00;0.00;;;7.10;99.90;;;;;;5114300;28;20035;-86
2022/01/18 11:04:15;;;;;;;0.03;0.03;;;7.10;99.90;;;;;;5112937;28;20039;-88
2022/01/18 11:07:01;;;;;;;0.10;0.10;;;7.10;99.90;;;;;;5114624;28;20488;-83
2022/01/18 11:09:27;;;;;;;0.10;0.10;;;7.20;99.90;;;;;;5129647;28;20101;-87
2022/01/18 11:11:54;;;;;;;0.10;0.10;;;7.20;99.90;;;;;;5112784;28;20035;-82
2022/01/18 11:14:22;;;;;;;0.10;0.10;;;7.20;99.90;;;;;;5129696;28;20050;-87
2022/01/18 11:16:51;;;;;;;0.10;0.10;;;7.20;99.90;;;;;;5112318;28;20039;-82
2022/01/18 11:21:50;;;;;;;0.00;0.00;;;7.30;99.90;;;;;;5130581;28;20044;-82
2022/01/18 11:24:18;;;;;;;0.00;0.00;;;7.30;99.90;;;;;;5113073;28;20065;-87
2022/01/18 11:26:47;;;;;;;0.10;0.10;;;7.30;99.90;;;;;;5143062;28;20043;-86
2022/01/18 11:29:17;;;;;;;0.10;0.10;;;7.30;99.90;;;;;;5114392;28;20571;-87
2022/01/18 11:31:49;;;;;;;0.00;0.00;;;7.30;99.90;;;;;;5129141;28;20052;-86
2022/01/18 11:34:58;;;;;;;0.00;0.00;;;7.70;99.90;;;;;;5131019;28;20548;-86
2022/01/18 11:37:58;;;;;;;0.08;0.08;;;7.30;99.90;;;;;;5076744;28;20101;-82
2022/01/18 11:40:25;;;;;;;0.10;0.10;;;7.30;99.90;;;;;;5130435;28;20176;-82
2022/01/18 11:42:56;;;;;;;0.08;0.08;;;7.30;99.90;;;;;;5130294;28;20474;-87
2022/01/18 11:45:30;;;;;;;0.00;0.00;;;7.30;99.90;;;;;;5130165;28;20398;-82
2022/01/18 11:47:59;;;;;;;0.00;0.00;;;7.30;99.90;;;;;;5130474;28;20036;-82
2022/01/18 11:50:30;;;;;;;0.10;0.10;;;7.30;99.90;;;;;;5130109;28;20036;-87
2022/01/18 11:53:26;;;;;;;0.10;0.10;;;7.30;99.90;;;;;;5129159;28;20067;-82
2022/01/18 11:55:55;;;;;;;0.10;0.10;;;7.30;99.90;;;;;;5129257;28;20054;-82
2022/01/18 11:58:22;;;;;;;0.03;0.03;;;7.30;99.90;;;;;;5146461;28;20491;-82
2022/01/18 12:00:56;;;;;;;0.10;0.10;;;7.30;99.90;;;;;;5129536;28;20047;-82
2022/01/18 12:03:28;;;;;;;0.10;0.10;;;7.20;99.90;;;;;;5146413;28;20152;-82
2022/01/18 12:05:57;;;;;;;0.00;0.00;;;7.30;99.90;;;;;;5149083;28;20093;-86
2022/01/18 12:08:30;;;;;;;0.10;0.10;;;7.30;99.90;;;;;;5112896;28;20050;-82
2022/01/18 12:10:57;;;;;;;0.10;0.10;;;7.20;99.90;;;;;;5163331;28;20070;-86
2022/01/18 12:13:33;;;;;;;0.05;0.05;;;7.20;99.90;;;;;;5163476;28;20044;-86
2022/01/18 12:16:22;;;;;;;0.03;0.03;;;7.20;99.90;;;;;;5163707;28;20044;-82
2022/01/18 12:18:57;;;;;;;0.05;0.05;;;7.20;99.90;;;;;;5127902;28;20048;-82
2022/01/18 12:21:27;;;;;;;0.10;0.10;;;7.40;99.90;;;;;;5133049;28;20491;-82
2022/01/18 12:23:57;;;;;;;0.10;0.10;;;7.30;99.90;;;;;;5132595;28;20101;-83
2022/01/18 12:34:30;;;;;;;0.10;0.10;;;7.20;99.90;;;;;;5150523;28;20047;-86
2022/01/18 12:37:11;;;;;;;0.10;0.10;;;7.20;99.90;;;;;;5132123;28;20046;-84
2022/01/18 12:39:50;;;;;;;0.10;0.10;;;7.20;99.90;;;;;;5149567;28;20079;-84
2022/01/18 12:45:09;;;;;;;0.10;0.10;;;7.30;99.90;;;;;;5149570;28;20040;-86
2022/01/18 12:47:48;;;;;;;0.00;0.00;;;7.10;99.90;;;;;;5132501;28;20040;-86
2022/01/18 12:50:18;;;;;;;0.10;0.10;;;7.10;99.90;;;;;;5132616;28;20054;-86
2022/01/18 12:53:00;;;;;;;0.10;0.10;;;7.10;99.90;;;;;;5131635;28;20499;-84
2022/01/18 12:55:43;;;;;;;0.00;0.00;;;7.10;99.90;;;;;;5132380;28;20044;-84
2022/01/18 12:58:20;;;;;;;0.05;0.05;;;7.10;99.90;;;;;;5132406;28;20128;-86
2022/01/18 13:00:49;;;;;;;0.00;0.00;;;7.10;99.90;;;;;;5132757;28;20040;-85
2022/01/18 13:03:18;;;;;;;0.00;0.00;;;7.00;99.90;;;;;;5133032;28;20043;-85
2022/01/18 13:05:47;;;;;;;0.00;0.00;;;7.00;99.90;;;;;;5132231;28;20032;-86
2022/01/18 13:08:17;;;;;;;0.08;0.08;;;7.00;99.90;;;;;;5098801;28;20511;-86
2022/01/18 13:10:49;;;;;;;0.08;0.08;;;7.00;99.90;;;;;;5131528;28;20043;-84
2022/01/18 13:13:20;;;;;;;0.00;0.00;;;7.00;99.90;;;;;;5131502;28;20055;-84
2022/01/18 13:26:50;;;;;;;0.00;0.00;;;7.00;99.90;;;;;;5118349;28;20039;-84
2022/01/18 13:29:21;;;;;;;0.10;0.10;;;7.00;99.90;;;;;;5099826;27;20051;-86
2022/01/18 13:32:17;;;;;;;0.00;0.00;;;7.00;99.90;;;;;;5131775;28;20052;-86
2022/01/18 13:34:47;;;;;;;0.00;0.00;;;6.90;99.90;;;;;;5131673;28;20094;-84
2022/01/18 13:37:17;;;;;;;0.00;0.00;;;6.90;99.90;;;;;;5131519;28;20036;-86
2022/01/18 13:39:50;;;;;;;0.10;0.10;;;6.90;99.90;;;;;;5131170;28;20107;-86
2022/01/18 13:42:29;;;;;;;0.00;0.00;;;7.00;99.90;;;;;;5131945;28;20043;-86
2022/01/18 13:45:11;;;;;;;0.05;0.05;;;6.90;99.90;;;;;;5130982;28;20096;-84
2022/01/18 13:47:50;;;;;;;0.00;0.00;;;6.90;99.90;;;;;;5131144;28;20408;-86
2022/01/18 13:50:42;;;;;;;0.08;0.08;;;6.90;99.90;;;;;;5131195;28;20044;-86
2022/01/18 13:53:22;;;;;;;0.00;0.00;;;6.90;99.90;;;;;;5131226;28;20039;-84
2022/01/18 13:55:54;;;;;;;0.10;0.10;;;6.90;99.90;;;;;;5131034;28;20492;-86
2022/01/18 13:58:28;;;;;;;0.10;0.10;;;6.80;99.90;;;;;;5131204;28;20083;-85
2022/01/18 14:01:17;;;;;;;0.00;0.00;;;6.80;99.90;;;;;;5130911;28;20112;-85
2022/01/18 14:03:49;;;;;;;0.00;0.00;;;6.80;99.90;;;;;;5130784;28;20487;-85
2022/01/18 14:06:20;;;;;;;0.10;0.10;;;6.80;99.90;;;;;;5130943;28;20396;-84
2022/01/18 14:08:49;;;;;;;0.00;0.00;;;6.80;99.90;;;;;;5130723;28;20126;-84
2022/01/18 14:11:18;;;;;;;0.00;0.00;;;6.80;99.90;;;;;;5130828;28;20099;-85
2022/01/18 14:13:45;;;;;;;0.00;0.00;;;6.80;99.90;;;;;;5130931;28;20054;-86
2022/01/18 14:16:20;;;;;;;0.00;0.00;;;6.70;99.90;;;;;;5114990;28;20040;-87
2022/01/18 14:18:58;;;;;;;;;;;6.80;99.90;;;;;;5130930;28;20488;-86
2022/01/18 14:21:25;;;;;;;0.00;0.00;;;6.30;99.90;;;;;;5130400;28;20006;-87
2022/01/18 14:28:14;;;;;;;0.10;0.10;;;6.60;99.90;;;;;;5068575;28;20048;-86
2022/01/18 14:31:04;;;;;;;0.10;0.10;;;6.60;99.90;;;;;;5060919;28;20053;-86
2022/01/18 14:33:31;;;;;;;0.10;0.10;;;6.90;99.90;;;;;;5130853;28;20049;-87
2022/01/18 14:43:42;;;;;;;0.10;0.10;;;6.30;99.90;;;;;;5113641;28;20059;-87
2022/01/18 14:46:37;;;;;;;0.00;0.00;;;6.40;99.90;;;;;;5147954;27;20046;-87
2022/01/18 14:49:04;;;;;;;0.03;0.03;;;6.00;99.90;;;;;;5140229;27;20040;-86
2022/01/18 14:51:31;;;;;;;0.10;0.10;;;6.30;99.90;;;;;;5142370;28;20489;-86
2022/01/18 14:54:01;;;;;;;0.00;0.00;;;6.20;99.90;;;;;;5111974;28;20516;-86
2022/01/18 14:56:28;;;;;;;0.10;0.10;;;6.10;99.90;;;;;;5130006;28;20036;-86
2022/01/18 14:59:00;;;;;;;0.10;0.10;;;5.50;99.90;;;;;;5129773;28;20551;-87
2022/01/18 15:01:29;;;;;;;0.10;0.10;;;6.00;99.90;;;;;;5137747;28;20071;-85
2022/01/18 15:04:06;;;;;;;0.10;0.10;;;6.00;99.90;;;;;;5092818;28;20559;-85
2022/01/18 15:06:39;;;;;;;0.10;0.10;;;6.00;99.90;;;;;;5093898;28;20040;-86